createdAt,value
2023-05-01T00:02:14.283Z,14.81
2023-05-01T00:04:41.482Z,14.79
2023-05-01T00:07:08.767Z,14.75
2023-05-01T00:09:35.920Z,14.73
2023-05-01T00:12:03.780Z,14.67
2023-05-01T00:14:31.002Z,14.63
2023-05-01T00:16:58.167Z,14.63
2023-05-01T00:19:25.373Z,14.61
2023-05-01T00:21:53.169Z,14.59
2023-05-01T00:24:20.393Z,14.58
2023-05-01T00:26:47.452Z,14.57
2023-05-01T00:29:14.575Z,14.54
2023-05-01T00:31:42.721Z,14.54
2023-05-01T00:34:11.550Z,14.51
2023-05-01T00:36:38.645Z,14.50
2023-05-01T00:39:07.901Z,14.47
2023-05-01T00:41:38.091Z,14.48
2023-05-01T00:44:05.308Z,14.47
2023-05-01T00:46:34.011Z,14.45
2023-05-01T00:49:01.566Z,14.44
2023-05-01T00:51:29.851Z,14.42
2023-05-01T00:53:59.459Z,14.40
2023-05-01T00:56:26.510Z,14.41
2023-05-01T00:58:54.473Z,14.37
2023-05-01T01:01:22.291Z,14.34
2023-05-01T01:03:51.701Z,14.32
2023-05-01T01:06:51.670Z,14.28
2023-05-01T01:10:02.349Z,14.23
2023-05-01T01:12:54.978Z,14.18
2023-05-01T01:15:50.592Z,14.16
2023-05-01T01:18:38.573Z,14.13
2023-05-01T01:21:29.483Z,14.12
2023-05-01T01:24:42.409Z,14.10
2023-05-01T01:28:06.367Z,14.06
2023-05-01T01:31:12.174Z,14.02
2023-05-01T01:34:15.597Z,13.98
2023-05-01T01:37:02.693Z,13.95
2023-05-01T01:39:39.257Z,13.93
2023-05-01T01:42:13.640Z,13.92
2023-05-01T01:44:54.890Z,13.92
2023-05-01T01:47:32.073Z,13.90
2023-05-01T01:50:06.776Z,13.89
2023-05-01T01:52:36.421Z,13.87
2023-05-01T01:55:12.360Z,13.88
2023-05-01T01:57:43.937Z,13.84
2023-05-01T02:00:13.846Z,13.85
2023-05-01T02:02:42.913Z,13.84
2023-05-01T02:05:15.348Z,13.80
2023-05-01T02:07:46.017Z,13.78
2023-05-01T02:10:15.059Z,13.75
2023-05-01T02:12:46.080Z,13.71
2023-05-01T02:15:16.353Z,13.76
2023-05-01T02:17:43.850Z,13.76
2023-05-01T02:20:13.265Z,13.67
2023-05-01T02:22:41.168Z,13.65
2023-05-01T02:25:13.410Z,13.61
2023-05-01T02:27:55.710Z,13.59
2023-05-01T02:30:22.844Z,13.59
2023-05-01T02:32:49.863Z,13.57
2023-05-01T02:35:17.753Z,13.55
2023-05-01T02:37:45.844Z,13.52
2023-05-01T02:40:15.120Z,13.51
2023-05-01T02:42:45.049Z,13.52
2023-05-01T02:45:20.771Z,13.52
2023-05-01T02:47:55.237Z,13.53
2023-05-01T02:50:23.337Z,13.51
2023-05-01T02:52:51.268Z,13.52
2023-05-01T02:55:18.872Z,13.50
2023-05-01T02:57:46.117Z,13.50
2023-05-01T03:00:14.179Z,13.48
2023-05-01T03:02:41.520Z,13.44
2023-05-01T03:05:09.190Z,13.44
2023-05-01T03:07:36.328Z,13.41
2023-05-01T03:10:07.915Z,13.38
2023-05-01T03:12:34.958Z,13.36
2023-05-01T03:15:01.970Z,13.33
2023-05-01T03:17:29.263Z,13.33
2023-05-01T03:19:56.773Z,13.32
2023-05-01T03:22:24.016Z,13.31
2023-05-01T03:24:51.056Z,13.28
2023-05-01T03:27:18.007Z,13.25
2023-05-01T03:29:45.155Z,13.24
2023-05-01T03:32:12.187Z,13.22
2023-05-01T03:34:39.214Z,13.22
2023-05-01T03:37:06.265Z,13.20
2023-05-01T03:39:33.269Z,13.18
2023-05-01T03:42:00.297Z,13.15
2023-05-01T03:44:27.513Z,13.14
2023-05-01T03:46:54.643Z,13.13
2023-05-01T03:49:22.249Z,13.11
2023-05-01T03:51:49.379Z,13.09
2023-05-01T03:54:16.396Z,13.09
2023-05-01T03:56:43.423Z,13.07
2023-05-01T03:59:10.472Z,13.08
2023-05-01T04:01:38.398Z,13.05
2023-05-01T04:04:05.827Z,13.04
2023-05-01T04:06:33.076Z,13.02
2023-05-01T04:09:00.127Z,12.99
2023-05-01T04:11:28.446Z,12.98
2023-05-01T04:13:55.454Z,12.95
2023-05-01T04:16:22.592Z,12.94
2023-05-01T04:18:49.679Z,12.94
2023-05-01T04:21:18.826Z,12.92
2023-05-01T04:23:45.951Z,12.92
2023-05-01T04:26:13.039Z,12.90
2023-05-01T04:28:40.101Z,12.93
2023-05-01T04:31:07.242Z,12.89
2023-05-01T04:33:34.318Z,12.86
2023-05-01T04:36:01.357Z,12.83
2023-05-01T04:38:30.306Z,12.81
2023-05-01T04:40:57.261Z,12.81
2023-05-01T04:43:24.451Z,12.82
2023-05-01T04:45:51.441Z,12.84
2023-05-01T04:48:18.574Z,12.87
2023-05-01T04:50:45.633Z,12.92
2023-05-01T04:53:12.631Z,12.94
2023-05-01T04:55:39.604Z,12.99
2023-05-01T04:58:06.736Z,13.05
2023-05-01T05:00:33.917Z,13.11
2023-05-01T05:03:01.141Z,13.14
2023-05-01T05:05:28.514Z,13.18
2023-05-01T05:07:55.519Z,13.23
2023-05-01T05:10:22.587Z,13.28
2023-05-01T05:12:49.658Z,13.32
2023-05-01T05:15:16.890Z,13.37
2023-05-01T05:17:44.050Z,13.42
2023-05-01T05:20:11.403Z,13.49
2023-05-01T05:22:38.562Z,13.57
2023-05-01T05:25:06.844Z,13.64
2023-05-01T05:27:38.322Z,13.74
2023-05-01T05:30:10.162Z,13.84
2023-05-01T05:32:37.818Z,13.94
2023-05-01T05:35:05.654Z,14.06
2023-05-01T05:37:32.734Z,14.19
2023-05-01T05:39:59.661Z,14.30
2023-05-01T05:42:27.335Z,14.42
2023-05-01T05:44:54.271Z,14.56
2023-05-01T05:47:21.271Z,14.68
2023-05-01T05:49:48.690Z,14.74
2023-05-01T05:52:15.722Z,14.81
2023-05-01T05:54:42.794Z,14.84
2023-05-01T05:57:09.793Z,14.86
2023-05-01T05:59:36.915Z,14.89
2023-05-01T06:02:04.021Z,14.92
2023-05-01T06:04:31.154Z,14.96
2023-05-01T06:06:58.888Z,14.99
2023-05-01T06:09:26.339Z,15.05
2023-05-01T06:11:53.397Z,15.09
2023-05-01T06:14:20.370Z,15.20
2023-05-01T06:16:47.589Z,15.33
2023-05-01T06:19:15.598Z,15.42
2023-05-01T06:21:42.655Z,15.52
2023-05-01T06:24:09.930Z,15.62
2023-05-01T06:26:36.934Z,15.72
2023-05-01T06:29:03.906Z,15.80
2023-05-01T06:31:30.941Z,15.86
2023-05-01T06:33:57.962Z,15.90
2023-05-01T06:36:25.042Z,16.01
2023-05-01T06:38:52.084Z,16.13
2023-05-01T06:41:19.289Z,16.18
2023-05-01T06:43:46.336Z,16.20
2023-05-01T06:46:13.420Z,16.26
2023-05-01T06:48:40.524Z,16.33
2023-05-01T06:51:07.662Z,16.42
2023-05-01T06:53:35.141Z,16.49
2023-05-01T06:56:02.314Z,16.61
2023-05-01T06:58:29.260Z,16.74
2023-05-01T07:00:56.549Z,16.87
2023-05-01T07:03:23.785Z,16.96
2023-05-01T07:05:50.834Z,17.08
2023-05-01T07:08:17.827Z,17.20
2023-05-01T07:10:44.879Z,17.32
2023-05-01T07:13:12.026Z,17.41
2023-05-01T07:15:39.289Z,17.62
2023-05-01T07:18:06.462Z,17.68
2023-05-01T07:20:34.860Z,17.76
2023-05-01T07:23:02.014Z,17.78
2023-05-01T07:25:29.928Z,17.88
2023-05-01T07:27:57.063Z,17.98
2023-05-01T07:30:24.244Z,18.18
2023-05-01T07:32:51.328Z,18.30
2023-05-01T07:35:18.389Z,18.38
2023-05-01T07:37:45.385Z,18.57
2023-05-01T07:40:12.541Z,18.74
2023-05-01T07:42:39.525Z,18.75
2023-05-01T07:45:08.020Z,18.81
2023-05-01T07:47:35.292Z,18.96
2023-05-01T07:50:03.597Z,19.05
2023-05-01T07:52:30.642Z,19.20
2023-05-01T07:54:57.670Z,19.43
2023-05-01T07:57:25.190Z,19.63
2023-05-01T07:59:56.810Z,19.93
2023-05-01T08:02:24.261Z,20.23
2023-05-01T08:04:51.729Z,20.36
2023-05-01T08:07:18.932Z,20.48
2023-05-01T08:09:46.795Z,20.54
2023-05-01T08:12:14.146Z,20.60
2023-05-01T08:14:41.110Z,20.59
2023-05-01T08:17:08.143Z,20.55
2023-05-01T08:19:35.470Z,20.60
2023-05-01T08:22:02.543Z,20.76
2023-05-01T08:24:30.731Z,20.92
2023-05-01T08:26:58.297Z,20.98
2023-05-01T08:29:25.476Z,21.05
2023-05-01T08:31:52.609Z,21.05
2023-05-01T08:34:19.737Z,21.09
2023-05-01T08:36:46.740Z,21.08
2023-05-01T08:39:14.306Z,21.05
2023-05-01T08:41:45.733Z,21.06
2023-05-01T08:44:16.101Z,21.19
2023-05-01T08:46:53.720Z,21.26
2023-05-01T08:49:22.144Z,21.38
2023-05-01T08:51:53.087Z,21.34
2023-05-01T08:54:21.283Z,21.32
2023-05-01T08:56:49.710Z,21.34
2023-05-01T08:59:18.204Z,21.32
2023-05-01T09:01:47.330Z,21.25
2023-05-01T09:04:16.405Z,21.15
2023-05-01T09:06:45.096Z,21.09
2023-05-01T09:09:12.423Z,21.07
2023-05-01T09:11:39.897Z,21.09
2023-05-01T09:14:08.562Z,21.16
2023-05-01T09:16:35.681Z,21.19
2023-05-01T09:19:02.906Z,21.31
2023-05-01T09:21:32.090Z,21.46
2023-05-01T09:23:59.249Z,21.52
2023-05-01T09:26:26.810Z,21.57
2023-05-01T09:28:58.030Z,21.80
2023-05-01T09:31:29.804Z,22.02
2023-05-01T09:34:03.242Z,22.25
2023-05-01T09:36:33.092Z,22.43
2023-05-01T09:39:02.088Z,22.56
2023-05-01T09:41:31.633Z,22.64
2023-05-01T09:43:59.766Z,22.69
2023-05-01T09:46:27.803Z,22.67
2023-05-01T09:49:00.228Z,22.69
2023-05-01T09:51:33.080Z,22.76
2023-05-01T09:54:03.944Z,22.85
2023-05-01T09:56:46.085Z,22.93
2023-05-01T09:59:19.590Z,23.07
2023-05-01T10:01:50.292Z,23.14
2023-05-01T10:04:18.260Z,23.16
2023-05-01T10:06:45.484Z,23.24
2023-05-01T10:09:26.667Z,23.22
2023-05-01T10:11:57.716Z,23.17
2023-05-01T10:14:26.918Z,23.31
2023-05-01T10:16:54.727Z,23.51
2023-05-01T10:19:22.201Z,23.76
2023-05-01T10:21:49.982Z,23.94
2023-05-01T10:24:17.451Z,24.03
2023-05-01T10:26:48.068Z,24.07
2023-05-01T10:29:15.417Z,24.20
2023-05-01T10:31:42.814Z,24.53
2023-05-01T10:34:16.212Z,24.85
2023-05-01T10:36:53.584Z,24.95
2023-05-01T10:39:39.372Z,24.95
2023-05-01T10:42:14.442Z,24.90
2023-05-01T10:44:42.956Z,24.83
2023-05-01T10:47:25.496Z,24.77
2023-05-01T10:50:16.064Z,24.77
2023-05-01T10:53:12.134Z,24.87
2023-05-01T10:55:45.191Z,24.83
2023-05-01T10:58:14.275Z,24.85
2023-05-01T11:00:42.317Z,24.87
2023-05-01T11:03:21.629Z,24.93
2023-05-01T11:06:01.236Z,24.94
2023-05-01T11:08:39.131Z,24.84
2023-05-01T11:11:26.894Z,24.67
2023-05-01T11:14:05.544Z,24.48
2023-05-01T11:16:42.104Z,24.33
2023-05-01T11:19:21.132Z,24.20
2023-05-01T11:21:48.727Z,24.06
2023-05-01T11:24:17.542Z,23.83
2023-05-01T11:26:44.672Z,23.57
2023-05-01T11:29:12.293Z,23.28
2023-05-01T11:31:39.963Z,22.94
2023-05-01T11:34:07.368Z,22.63
2023-05-01T11:36:52.459Z,22.45
2023-05-01T11:39:20.441Z,22.40
2023-05-01T11:41:48.182Z,22.45
2023-05-01T11:44:18.968Z,22.55
2023-05-01T11:46:46.183Z,22.57
2023-05-01T11:49:13.178Z,22.59
2023-05-01T11:51:40.264Z,22.66
2023-05-01T11:54:12.548Z,22.75
2023-05-01T11:56:41.161Z,22.80
2023-05-01T11:59:17.097Z,22.89
2023-05-01T12:01:47.787Z,23.18
2023-05-01T12:04:32.521Z,23.43
2023-05-01T12:06:59.801Z,23.59
2023-05-01T12:09:27.692Z,23.71
2023-05-01T12:11:55.407Z,23.91
2023-05-01T12:14:24.473Z,24.08
2023-05-01T12:16:51.913Z,24.15
2023-05-01T12:19:20.503Z,24.04
2023-05-01T12:21:48.673Z,23.92
2023-05-01T12:24:18.962Z,23.83
2023-05-01T12:26:47.088Z,23.77
2023-05-01T12:29:14.324Z,23.70
2023-05-01T12:31:49.957Z,23.60
2023-05-01T12:34:17.411Z,23.48
2023-05-01T12:36:55.014Z,23.32
2023-05-01T12:39:23.722Z,23.12
2023-05-01T12:41:51.855Z,23.09
2023-05-01T12:44:32.095Z,23.02
2023-05-01T12:47:01.040Z,22.90
2023-05-01T12:49:30.093Z,22.74
2023-05-01T12:52:00.473Z,22.76
2023-05-01T12:54:32.414Z,22.66
2023-05-01T12:57:14.953Z,22.47
2023-05-01T12:59:46.900Z,22.46
2023-05-01T13:04:49.288Z,22.52
2023-05-01T13:07:19.118Z,22.56
2023-05-01T13:09:58.447Z,22.68
2023-05-01T13:12:27.802Z,22.83
2023-05-01T13:14:55.764Z,22.89
2023-05-01T13:17:30.389Z,22.98
2023-05-01T13:20:03.797Z,23.12
2023-05-01T13:22:37.315Z,23.19
2023-05-01T13:25:14.945Z,23.21
2023-05-01T13:27:47.415Z,23.24
2023-05-01T13:30:18.297Z,23.26
2023-05-01T13:32:47.488Z,23.25
2023-05-01T13:35:27.013Z,23.18
2023-05-01T13:37:55.035Z,23.11
2023-05-01T13:40:24.349Z,23.07
2023-05-01T13:42:53.832Z,23.08
2023-05-01T13:45:21.370Z,23.06
2023-05-01T13:47:54.363Z,23.18
2023-05-01T13:50:21.549Z,23.38
2023-05-01T13:52:49.098Z,23.48
2023-05-01T13:55:18.899Z,23.48
2023-05-01T13:57:46.173Z,23.42
2023-05-01T14:00:18.034Z,23.39
2023-05-01T14:02:48.937Z,23.47
2023-05-01T14:05:19.236Z,23.53
2023-05-01T14:07:55.244Z,23.58
2023-05-01T14:10:23.728Z,23.50
2023-05-01T14:12:51.267Z,23.41
2023-05-01T14:15:18.337Z,23.47
2023-05-01T14:17:45.814Z,23.58
2023-05-01T14:20:13.080Z,23.73
2023-05-01T14:22:46.252Z,23.93
2023-05-01T14:25:24.114Z,24.12
2023-05-01T14:27:53.573Z,24.26
2023-05-01T14:30:39.932Z,24.35
2023-05-01T14:33:14.083Z,24.29
2023-05-01T14:35:53.454Z,24.14
2023-05-01T14:38:25.779Z,24.11
2023-05-01T14:40:52.818Z,23.98
2023-05-01T14:43:26.914Z,23.90
2023-05-01T14:45:55.552Z,23.86
2023-05-01T14:48:33.580Z,23.82
2023-05-01T14:51:00.637Z,23.80
2023-05-01T14:53:32.987Z,23.85
2023-05-01T14:56:00.179Z,23.81
2023-05-01T14:58:27.218Z,23.80
2023-05-01T15:00:54.381Z,23.71
2023-05-01T15:03:21.916Z,23.72
2023-05-01T15:05:48.953Z,23.58
2023-05-01T15:08:16.025Z,23.55
2023-05-01T15:10:44.090Z,23.67
2023-05-01T15:13:11.357Z,23.79
2023-05-01T15:15:38.446Z,23.77
2023-05-01T15:18:08.569Z,23.70
2023-05-01T15:20:35.766Z,23.85
2023-05-01T15:23:05.194Z,24.24
2023-05-01T15:25:32.323Z,24.72
2023-05-01T15:27:59.336Z,25.20
2023-05-01T15:30:26.335Z,25.53
2023-05-01T15:32:55.819Z,25.81
2023-05-01T15:35:23.903Z,25.91
2023-05-01T15:37:51.487Z,25.87
2023-05-01T15:40:18.688Z,25.78
2023-05-01T15:42:48.156Z,25.78
2023-05-01T15:45:15.475Z,25.72
2023-05-01T15:47:42.583Z,25.63
2023-05-01T15:50:11.981Z,25.71
2023-05-01T15:52:39.592Z,25.99
2023-05-01T15:55:07.238Z,26.24
2023-05-01T15:57:35.146Z,26.16
2023-05-01T16:00:02.393Z,26.33
2023-05-01T16:02:32.740Z,26.42
2023-05-01T16:05:00.614Z,26.36
2023-05-01T16:07:29.983Z,26.55
2023-05-01T16:09:58.173Z,26.44
2023-05-01T16:12:29.113Z,25.95
2023-05-01T16:14:56.788Z,25.45
2023-05-01T16:17:24.092Z,25.36
2023-05-01T16:19:52.596Z,24.94
2023-05-01T16:22:21.353Z,24.43
2023-05-01T16:24:48.560Z,23.96
2023-05-01T16:27:18.532Z,23.59
2023-05-01T16:29:45.586Z,23.30
2023-05-01T16:32:14.345Z,23.04
2023-05-01T16:34:42.887Z,22.75
2023-05-01T16:37:09.954Z,22.47
2023-05-01T16:39:38.634Z,22.17
2023-05-01T16:42:06.334Z,21.87
2023-05-01T16:44:36.562Z,21.63
2023-05-01T16:47:05.121Z,21.43
2023-05-01T16:49:32.341Z,21.25
2023-05-01T16:52:04.012Z,21.09
2023-05-01T16:54:36.238Z,20.86
2023-05-01T16:57:03.959Z,20.69
2023-05-01T16:59:31.310Z,20.54
2023-05-01T17:01:58.730Z,20.42
2023-05-01T17:04:26.697Z,20.29
2023-05-01T17:06:56.084Z,20.15
2023-05-01T17:09:23.337Z,20.14
2023-05-01T17:11:51.237Z,20.19
2023-05-01T17:14:19.038Z,20.29
2023-05-01T17:16:47.911Z,20.40
2023-05-01T17:19:17.013Z,20.47
2023-05-01T17:21:44.204Z,20.47
2023-05-01T17:24:14.460Z,20.50
2023-05-01T17:26:41.519Z,20.51
2023-05-01T17:29:08.737Z,20.49
2023-05-01T17:31:36.451Z,20.46
2023-05-01T17:34:03.681Z,20.44
2023-05-01T17:36:30.660Z,20.42
2023-05-01T17:39:00.087Z,20.39
2023-05-01T17:41:27.297Z,20.38
2023-05-01T17:43:55.261Z,20.39
2023-05-01T17:46:22.451Z,20.57
2023-05-01T17:48:49.449Z,20.83
2023-05-01T17:51:16.432Z,20.83
2023-05-01T17:53:43.586Z,20.93
2023-05-01T17:56:10.599Z,20.92
2023-05-01T17:58:37.682Z,20.59
2023-05-01T18:01:05.161Z,20.19
2023-05-01T18:03:35.677Z,19.82
2023-05-01T18:06:02.958Z,19.58
2023-05-01T18:08:30.051Z,19.35
2023-05-01T18:10:57.207Z,19.18
2023-05-01T18:13:32.363Z,19.01
2023-05-01T18:15:59.392Z,18.91
2023-05-01T18:18:26.645Z,18.81
2023-05-01T18:20:54.012Z,18.76
2023-05-01T18:23:21.155Z,18.70
2023-05-01T18:25:48.138Z,18.61
2023-05-01T18:28:16.542Z,18.41
2023-05-01T18:30:43.917Z,18.14
2023-05-01T18:33:12.199Z,17.88
2023-05-01T18:35:42.528Z,17.63
2023-05-01T18:38:10.802Z,17.49
2023-05-01T18:40:38.002Z,17.45
2023-05-01T18:43:05.734Z,17.44
2023-05-01T18:45:32.716Z,17.37
2023-05-01T18:48:01.041Z,17.22
2023-05-01T18:50:28.888Z,17.05
2023-05-01T18:52:56.139Z,16.90
2023-05-01T18:55:23.274Z,16.76
2023-05-01T18:57:50.619Z,16.72
2023-05-01T19:00:17.791Z,16.65
2023-05-01T19:02:51.463Z,16.63
2023-05-01T19:05:19.349Z,16.56
2023-05-01T19:07:46.585Z,16.51
2023-05-01T19:10:14.059Z,16.46
2023-05-01T19:12:42.153Z,16.41
2023-05-01T19:15:10.372Z,16.36
2023-05-01T19:17:37.762Z,16.30
2023-05-01T19:20:05.842Z,16.24
2023-05-01T19:22:32.842Z,16.18
2023-05-01T19:25:02.706Z,16.14
2023-05-01T19:27:29.702Z,16.08
2023-05-01T19:30:02.311Z,16.03
2023-05-01T19:32:29.802Z,15.99
2023-05-01T19:34:57.110Z,15.93
2023-05-01T19:37:24.226Z,15.93
2023-05-01T19:39:51.224Z,15.91
2023-05-01T19:42:18.265Z,15.89
2023-05-01T19:44:45.688Z,15.84
2023-05-01T19:47:12.655Z,15.80
2023-05-01T19:49:39.642Z,15.75
2023-05-01T19:52:06.594Z,15.70
2023-05-01T19:54:33.558Z,15.68
2023-05-01T19:57:00.548Z,15.63
2023-05-01T19:59:27.762Z,15.59
2023-05-01T20:01:55.088Z,15.56
2023-05-01T20:04:24.106Z,15.51
2023-05-01T20:06:51.963Z,15.44
2023-05-01T20:09:19.247Z,15.40
2023-05-01T20:11:46.200Z,15.33
2023-05-01T20:14:13.492Z,15.27
2023-05-01T20:16:40.579Z,15.25
2023-05-01T20:19:09.207Z,15.21
2023-05-01T20:21:36.934Z,15.17
2023-05-01T20:24:04.472Z,15.12
2023-05-01T20:26:31.711Z,15.08
2023-05-01T20:28:58.762Z,15.01
2023-05-01T20:31:25.871Z,14.95
2023-05-01T20:33:52.955Z,14.90
2023-05-01T20:36:20.380Z,14.87
2023-05-01T20:38:48.617Z,14.84
2023-05-01T20:41:15.672Z,14.83
2023-05-01T20:43:42.870Z,14.79
2023-05-01T20:46:09.841Z,14.75
2023-05-01T20:48:37.187Z,14.68
2023-05-01T20:51:04.243Z,14.62
2023-05-01T20:53:31.512Z,14.56
2023-05-01T20:55:58.582Z,14.51
2023-05-01T20:58:25.777Z,14.46
2023-05-01T21:00:55.929Z,14.40
2023-05-01T21:03:23.118Z,14.36
2023-05-01T21:05:50.171Z,14.32
2023-05-01T21:08:17.200Z,14.28
2023-05-01T21:10:44.309Z,14.26
2023-05-01T21:13:12.091Z,14.21
2023-05-01T21:15:41.532Z,14.17
2023-05-01T21:18:14.687Z,14.14
2023-05-01T21:20:42.665Z,14.08
2023-05-01T21:23:09.699Z,14.02
2023-05-01T21:25:36.664Z,13.99
2023-05-01T21:28:06.294Z,13.97
2023-05-01T21:30:35.578Z,13.92
2023-05-01T21:33:08.252Z,13.90
2023-05-01T21:35:35.635Z,13.85
2023-05-01T21:38:07.344Z,13.77
2023-05-01T21:40:42.001Z,13.70
2023-05-01T21:43:09.705Z,13.69
2023-05-01T21:45:40.502Z,13.63
2023-05-01T21:48:11.655Z,13.59
2023-05-01T21:50:38.850Z,13.52
2023-05-01T21:53:09.050Z,13.49
2023-05-01T21:55:36.188Z,13.45
2023-05-01T21:58:04.015Z,13.36
2023-05-01T22:00:31.820Z,13.33
2023-05-01T22:02:58.927Z,13.33
2023-05-01T22:05:29.185Z,13.41
2023-05-01T22:07:56.226Z,13.43
2023-05-01T22:10:23.230Z,13.49
2023-05-01T22:12:50.301Z,13.52
2023-05-01T22:15:17.962Z,13.55
2023-05-01T22:17:45.637Z,13.57
2023-05-01T22:20:12.864Z,13.57
2023-05-01T22:22:41.892Z,13.57
2023-05-01T22:25:10.528Z,13.57
2023-05-01T22:27:38.054Z,13.57
2023-05-01T22:30:06.634Z,13.57
2023-05-01T22:32:34.003Z,13.56
2023-05-01T22:35:01.078Z,13.56
2023-05-01T22:37:28.153Z,13.53
2023-05-01T22:39:55.114Z,13.55
2023-05-01T22:42:23.250Z,13.52
2023-05-01T22:44:50.360Z,13.51
2023-05-01T22:47:20.430Z,13.52
2023-05-01T22:49:47.848Z,13.53
2023-05-01T22:52:15.546Z,13.49
2023-05-01T22:54:42.559Z,13.44
2023-05-01T22:57:10.341Z,13.44
2023-05-01T22:59:39.572Z,13.47
2023-05-01T23:02:06.850Z,13.46
2023-05-01T23:04:34.039Z,13.46
2023-05-01T23:07:01.340Z,13.44
2023-05-01T23:09:32.283Z,13.47
2023-05-01T23:11:59.436Z,13.46
2023-05-01T23:14:26.770Z,13.43
2023-05-01T23:16:54.211Z,13.43
2023-05-01T23:19:25.422Z,13.46
2023-05-01T23:22:10.945Z,13.47
2023-05-01T23:24:50.561Z,13.50
2023-05-01T23:27:21.472Z,13.49
2023-05-01T23:29:56.651Z,13.50
2023-05-01T23:32:28.117Z,13.48
2023-05-01T23:35:00.774Z,13.51
2023-05-01T23:37:27.994Z,13.50
2023-05-01T23:39:59.814Z,13.52
2023-05-01T23:42:28.229Z,13.53
2023-05-01T23:44:57.228Z,13.52
2023-05-01T23:47:24.448Z,13.51
2023-05-01T23:49:51.913Z,13.50
2023-05-01T23:52:19.089Z,13.51
2023-05-01T23:54:46.128Z,13.51
2023-05-01T23:57:13.114Z,13.51
2023-05-01T23:59:40.278Z,13.55
